Time;durP1;ratioP1;P1;durP2;ratioP2;P2;SDS_P1;SDS_P2;PMS_P1;PMS_P2;Temp;Humidity;BMP_temperature;BMP_pressure;BME280_temperature;BME280_humidity;BME280_pressure;Samples;Min_cycle;Max_cycle;Signal;HPM_P1;HPM_P2
2022/05/28 00:00:07;;;;;;;13.50;2.88;;;;;;;10.63;99.74;102168.47;5016301;28;20051;-43
2022/05/28 00:02:32;;;;;;;22.17;3.78;;;;;;;10.60;100.00;102160.72;5017189;28;20041;-45
2022/05/28 00:04:57;;;;;;;15.50;3.30;;;;;;;10.57;100.00;102155.66;5023520;28;20014;-43
2022/05/28 00:07:23;;;;;;;17.48;3.15;;;;;;;10.63;100.00;102156.97;5036760;28;20466;-43
2022/05/28 00:09:48;;;;;;;11.27;3.25;;;;;;;10.61;100.00;102148.22;5036555;28;20039;-44
2022/05/28 00:12:13;;;;;;;21.27;3.63;;;;;;;10.61;100.00;102146.41;5018565;28;20029;-44
2022/05/28 00:14:39;;;;;;;22.60;4.10;;;;;;;10.64;100.00;102150.63;5035797;28;20144;-45
2022/05/28 00:17:05;;;;;;;23.58;4.85;;;;;;;10.62;100.00;102144.56;5036684;28;20644;-42
2022/05/28 00:19:30;;;;;;;19.60;4.55;;;;;;;10.58;100.00;102145.81;5036549;28;20049;-42
2022/05/28 00:21:56;;;;;;;20.00;4.50;;;;;;;10.54;100.00;102147.91;5037628;28;20098;-45
2022/05/28 00:24:21;;;;;;;17.15;4.00;;;;;;;10.55;100.00;102148.75;5036824;28;20028;-50
2022/05/28 00:26:46;;;;;;;17.15;3.78;;;;;;;10.50;100.00;102148.28;5036904;28;20025;-48
2022/05/28 00:29:11;;;;;;;18.60;3.75;;;;;;;10.43;100.00;102146.09;5036353;28;20029;-45
2022/05/28 00:31:37;;;;;;;20.63;3.95;;;;;;;10.37;100.00;102141.31;5034917;28;20143;-44
2022/05/28 00:34:03;;;;;;;16.83;3.78;;;;;;;10.40;100.00;102143.72;5037249;28;20032;-43
2022/05/28 00:36:29;;;;;;;26.58;4.30;;;;;;;10.45;100.00;102138.84;5036668;28;20321;-44
2022/05/28 00:38:54;;;;;;;17.90;4.03;;;;;;;10.48;100.00;102137.72;5037123;28;20037;-42
2022/05/28 00:41:19;;;;;;;25.25;4.35;;;;;;;10.51;100.00;102139.31;5035565;28;20385;-45
2022/05/28 00:43:46;;;;;;;17.27;3.65;;;;;;;10.54;100.00;102131.00;5037679;28;20031;-45
2022/05/28 00:46:16;;;;;;;14.80;4.35;;;;;;;10.61;100.00;102140.22;5034582;28;20025;-44
2022/05/28 00:48:44;;;;;;;26.30;4.55;;;;;;;10.61;100.00;102130.38;5036726;28;20327;-46
2022/05/28 00:51:15;;;;;;;18.90;3.83;;;;;;;10.61;100.00;102133.03;5036323;28;20031;-46
2022/05/28 00:53:41;;;;;;;18.98;4.07;;;;;;;10.63;100.00;102125.75;5036830;28;20084;-43
2022/05/28 00:56:07;;;;;;;22.30;4.05;;;;;;;10.61;100.00;102133.03;5036349;28;20472;-45
2022/05/28 00:58:33;;;;;;;22.15;4.13;;;;;;;10.59;100.00;102120.78;5034831;28;20032;-44
2022/05/28 01:00:59;;;;;;;22.85;4.28;;;;;;;10.62;100.00;102131.22;5034620;28;20021;-43
2022/05/28 01:03:33;;;;;;;21.48;4.07;;;;;;;10.58;100.00;102127.94;5036434;28;20515;-42
2022/05/28 01:06:08;;;;;;;27.10;4.30;;;;;;;10.59;100.00;102128.78;5022015;28;20399;-44
2022/05/28 01:08:52;;;;;;;13.05;3.90;;;;;;;10.52;100.00;102123.16;5014957;28;20060;-43
2022/05/28 01:11:36;;;;;;;16.33;4.00;;;;;;;10.52;100.00;102117.81;5015484;28;20026;-44
2022/05/28 01:14:05;;;;;;;23.45;4.07;;;;;;;10.55;100.00;102119.34;5016384;28;20040;-44
2022/05/28 01:16:44;;;;;;;17.33;3.97;;;;;;;10.52;100.00;102119.59;5013492;28;20037;-45
2022/05/28 01:19:28;;;;;;;23.13;3.88;;;;;;;10.53;100.00;102114.13;5015887;28;20510;-43
2022/05/28 01:22:01;;;;;;;19.10;4.25;;;;;;;10.51;100.00;102115.25;5016089;28;20037;-45
2022/05/28 01:24:38;;;;;;;23.83;4.05;;;;;;;10.49;100.00;102123.41;5014732;28;20052;-42
2022/05/28 01:27:10;;;;;;;21.33;4.15;;;;;;;10.47;100.00;102117.31;5016073;28;20500;-45
2022/05/28 01:29:42;;;;;;;19.05;3.97;;;;;;;10.42;100.00;102114.19;5013953;28;20021;-46
2022/05/28 01:32:09;;;;;;;23.70;3.97;;;;;;;10.40;100.00;102117.00;5014446;28;20136;-44
2022/05/28 01:34:35;;;;;;;14.73;3.92;;;;;;;10.38;100.00;102110.09;5015136;28;20283;-43
2022/05/28 01:37:04;;;;;;;18.10;3.83;;;;;;;10.37;100.00;102117.25;5015866;28;20044;-45
2022/05/28 01:39:30;;;;;;;22.40;4.38;;;;;;;10.34;100.00;102122.03;5014799;28;20029;-44
2022/05/28 01:41:56;;;;;;;18.10;4.05;;;;;;;10.32;100.00;102126.63;5015894;28;20040;-46
2022/05/28 01:44:23;;;;;;;24.63;4.20;;;;;;;10.29;100.00;102117.03;5014499;28;20175;-44
2022/05/28 01:46:50;;;;;;;18.98;3.53;;;;;;;10.24;100.00;102108.53;5013598;28;20021;-46
2022/05/28 01:49:18;;;;;;;24.67;4.18;;;;;;;10.23;100.00;102123.72;5015421;28;20033;-45
2022/05/28 01:51:49;;;;;;;16.02;3.58;;;;;;;10.23;100.00;102122.84;5016753;28;20011;-45
2022/05/28 01:54:18;;;;;;;14.40;3.90;;;;;;;10.20;100.00;102125.78;5016512;28;20081;-45
2022/05/28 01:56:50;;;;;;;18.40;3.80;;;;;;;10.15;100.00;102126.19;5014604;28;20243;-45
2022/05/28 01:59:20;;;;;;;17.65;3.63;;;;;;;10.14;100.00;102124.47;5013749;28;20033;-46
2022/05/28 02:01:46;;;;;;;18.33;3.42;;;;;;;10.12;100.00;102128.25;5014908;28;20180;-43
2022/05/28 02:04:12;;;;;;;24.10;4.15;;;;;;;10.12;100.00;102123.75;5015848;28;20115;-43
2022/05/28 02:06:39;;;;;;;24.33;3.83;;;;;;;10.11;100.00;102115.88;5015361;28;20468;-43
2022/05/28 02:09:07;;;;;;;25.00;4.10;;;;;;;10.10;100.00;102123.03;5016383;28;20013;-45
2022/05/28 02:11:50;;;;;;;19.67;3.42;;;;;;;10.11;100.00;102124.72;5014532;28;20629;-46
2022/05/28 02:14:29;;;;;;;19.70;3.88;;;;;;;10.15;100.00;102122.66;5014704;28;20309;-46
2022/05/28 02:17:29;;;;;;;16.95;3.50;;;;;;;10.15;100.00;102125.31;5014876;28;20109;-46
2022/05/28 02:20:17;;;;;;;22.35;3.50;;;;;;;10.16;100.00;102111.84;5014957;28;20029;-45
2022/05/28 02:22:51;;;;;;;18.48;3.47;;;;;;;10.18;100.00;102114.38;5016086;28;20029;-46
2022/05/28 02:25:23;;;;;;;13.73;3.33;;;;;;;10.18;100.00;102114.38;5015533;28;20635;-43
2022/05/28 02:27:51;;;;;;;18.55;3.30;;;;;;;10.16;100.00;102111.84;5015318;28;20026;-46
2022/05/28 02:30:17;;;;;;;20.95;3.50;;;;;;;10.14;100.00;102104.94;5013351;28;20468;-44
2022/05/28 02:32:42;;;;;;;17.35;3.60;;;;;;;10.11;100.00;102106.03;5015774;28;20036;-45
2022/05/28 02:35:10;;;;;;;19.83;3.45;;;;;;;10.07;100.00;102102.78;5014814;28;20033;-46
2022/05/28 02:37:35;;;;;;;14.20;3.35;;;;;;;10.07;100.00;102099.28;5014234;28;20930;-45
2022/05/28 02:40:01;;;;;;;15.60;3.90;;;;;;;10.08;100.00;102100.94;5015480;28;20029;-44
2022/05/28 02:42:26;;;;;;;21.48;4.00;;;;;;;10.10;100.00;102091.00;5013721;28;20029;-45
2022/05/28 02:44:51;;;;;;;21.52;3.88;;;;;;;10.09;100.00;102089.31;5014198;28;20100;-44
2022/05/28 02:47:17;;;;;;;17.73;3.25;;;;;;;10.05;100.00;102077.19;5012943;28;20033;-49
2022/05/28 02:49:42;;;;;;;16.02;3.28;;;;;;;10.08;100.00;102088.47;5015195;28;20297;-45
2022/05/28 02:52:08;;;;;;;19.83;3.72;;;;;;;10.09;100.00;102082.13;5014033;28;20036;-46
2022/05/28 02:54:34;;;;;;;18.00;3.50;;;;;;;10.09;100.00;102089.31;5014571;28;20091;-47
2022/05/28 02:57:01;;;;;;;16.85;3.50;;;;;;;10.07;100.00;102081.41;5034239;28;20029;-49
2022/05/28 02:59:26;;;;;;;16.38;3.40;;;;;;;10.03;100.00;102085.34;5033625;28;20108;-45
2022/05/28 03:01:52;;;;;;;20.17;3.55;;;;;;;10.06;100.00;102084.22;5034051;28;20381;-46
2022/05/28 03:04:18;;;;;;;20.45;3.78;;;;;;;10.04;100.00;102086.16;5034024;28;20501;-47
2022/05/28 03:06:43;;;;;;;14.73;2.92;;;;;;;10.01;100.00;102087.28;5015024;28;20512;-48
2022/05/28 03:09:09;;;;;;;23.20;3.88;;;;;;;10.01;100.00;102089.09;5013241;28;20120;-47
2022/05/28 03:11:37;;;;;;;20.65;3.47;;;;;;;9.93;100.00;102087.06;5014297;28;20071;-48
2022/05/28 03:14:03;;;;;;;17.25;3.30;;;;;;;9.90;100.00;102092.66;5014739;28;20090;-44
2022/05/28 03:16:28;;;;;;;14.45;3.28;;;;;;;9.84;100.00;102091.34;5012404;28;20237;-48
2022/05/28 03:18:53;;;;;;;20.95;3.33;;;;;;;9.82;100.00;102103.09;5013999;28;20037;-48
2022/05/28 03:21:19;;;;;;;23.38;3.88;;;;;;;9.78;100.00;102099.84;5012588;28;20325;-45
2022/05/28 03:23:47;;;;;;;19.85;3.42;;;;;;;9.77;100.00;102099.97;5014704;28;20110;-44
2022/05/28 03:26:22;;;;;;;15.15;3.40;;;;;;;9.74;100.00;102100.19;5014695;28;20450;-44
2022/05/28 03:28:52;;;;;;;11.43;3.40;;;;;;;9.74;100.00;102106.38;5014988;28;20025;-43
2022/05/28 03:31:19;;;;;;;17.50;3.17;;;;;;;9.71;100.00;102112.81;5015467;28;20025;-46
2022/05/28 03:33:44;;;;;;;14.95;3.30;;;;;;;9.65;100.00;102099.13;5018186;28;20125;-47
2022/05/28 03:36:10;;;;;;;17.08;3.20;;;;;;;9.66;100.00;102103.50;5016560;28;20628;-47
2022/05/28 03:38:36;;;;;;;11.43;2.75;;;;;;;9.67;100.00;102107.84;5017648;28;20017;-44
2022/05/28 03:41:02;;;;;;;15.63;3.15;;;;;;;9.64;100.00;102108.97;5018109;28;20408;-46
2022/05/28 03:43:27;;;;;;;19.88;3.63;;;;;;;9.65;100.00;102113.31;5037139;28;20037;-45
2022/05/28 03:45:53;;;;;;;23.55;3.78;;;;;;;9.64;100.00;102114.31;5035735;28;20098;-45
2022/05/28 03:48:19;;;;;;;12.63;2.90;;;;;;;9.64;100.00;102116.09;5036387;28;20545;-46
2022/05/28 03:50:45;;;;;;;18.52;3.13;;;;;;;9.62;100.00;102108.25;5038552;28;20036;-44
2022/05/28 03:53:10;;;;;;;16.23;3.08;;;;;;;9.67;100.00;102113.19;5037590;28;20046;-45
2022/05/28 03:55:37;;;;;;;13.85;2.80;;;;;;;9.66;100.00;102114.19;5037056;28;20039;-48
2022/05/28 03:58:02;;;;;;;14.70;3.05;;;;;;;9.60;100.00;102112.84;5037357;28;20087;-46
2022/05/28 04:00:30;;;;;;;19.95;3.25;;;;;;;9.63;100.00;102111.75;5031891;28;20431;-45
2022/05/28 04:02:56;;;;;;;16.13;3.40;;;;;;;9.67;100.00;102118.53;5019736;28;20026;-43
2022/05/28 04:05:22;;;;;;;15.20;3.08;;;;;;;9.67;100.00;102115.84;5025280;28;20553;-43
2022/05/28 04:07:47;;;;;;;17.90;2.75;;;;;;;9.68;100.00;102114.91;5037378;28;20085;-42
2022/05/28 04:10:13;;;;;;;21.48;3.05;;;;;;;9.73;100.00;102118.03;5038115;28;20020;-44
2022/05/28 04:12:38;;;;;;;16.55;2.75;;;;;;;9.74;100.00;102117.03;5037139;28;20317;-42
2022/05/28 04:15:04;;;;;;;18.63;2.85;;;;;;;9.78;100.00;102123.84;5036138;28;20033;-47
2022/05/28 04:17:30;;;;;;;16.30;2.78;;;;;;;9.82;100.00;102125.28;5037114;28;20028;-46
2022/05/28 04:19:56;;;;;;;18.60;2.90;;;;;;;9.87;100.00;102123.09;5036727;28;20047;-45
2022/05/28 04:22:21;;;;;;;20.77;3.22;;;;;;;9.92;100.00;102121.88;5036115;28;20057;-45
2022/05/28 04:24:46;;;;;;;24.23;3.03;;;;;;;9.96;100.00;102126.84;5037170;28;20099;-44
2022/05/28 04:27:12;;;;;;;19.50;2.80;;;;;;;9.98;100.00;102132.03;5036823;28;20263;-44
2022/05/28 04:29:37;;;;;;;17.25;2.47;;;;;;;10.03;100.00;102125.38;5035406;28;20695;-46
2022/05/28 04:32:03;;;;;;;22.83;3.88;;;;;;;10.06;100.00;102129.59;5036217;28;20040;-45
2022/05/28 04:34:28;;;;;;;18.52;2.70;;;;;;;10.08;100.00;102138.31;5036224;28;20033;-45
2022/05/28 04:36:53;;;;;;;18.17;2.90;;;;;;;10.13;100.00;102129.94;5036491;28;20021;-48
2022/05/28 04:39:19;;;;;;;22.92;2.90;;;;;;;10.20;100.00;102142.66;5036021;28;20031;-45
2022/05/28 04:41:44;;;;;;;16.88;2.38;;;;;;;10.25;100.00;102136.91;5036966;28;20500;-44
2022/05/28 04:44:09;;;;;;;18.30;2.50;;;;;;;10.31;100.00;102128.41;5036482;28;20036;-46
2022/05/28 04:46:34;;;;;;;17.63;2.67;;;;;;;10.39;100.00;102133.16;5034826;28;20159;-43
2022/05/28 04:49:00;;;;;;;15.38;2.00;;;;;;;10.48;100.00;102142.22;5036776;28;20486;-47
2022/05/28 04:51:25;;;;;;;14.40;2.70;;;;;;;10.55;100.00;102140.72;5036351;28;20043;-45
2022/05/28 04:53:51;;;;;;;15.18;2.40;;;;;;;10.65;100.00;102141.66;5035724;28;20107;-45
2022/05/28 04:56:16;;;;;;;25.58;2.80;;;;;;;10.69;100.00;102135.03;5035149;28;20106;-43
2022/05/28 04:58:42;;;;;;;18.33;2.08;;;;;;;10.77;100.00;102150.44;5036748;28;20036;-43
2022/05/28 05:01:12;;;;;;;18.20;2.45;;;;;;;10.83;100.00;102142.75;5034621;28;20499;-45
2022/05/28 05:03:37;;;;;;;19.02;2.55;;;;;;;10.88;100.00;102141.50;5034919;28;20051;-42
2022/05/28 05:06:02;;;;;;;26.17;2.47;;;;;;;10.93;100.00;102147.31;5036233;28;20013;-48
2022/05/28 05:08:28;;;;;;;15.27;2.13;;;;;;;10.95;100.00;102148.03;5036028;28;20037;-43
2022/05/28 05:10:53;;;;;;;15.50;1.73;;;;;;;10.98;100.00;102162.00;5035494;28;20471;-44
2022/05/28 05:13:18;;;;;;;12.27;1.60;;;;;;;11.04;100.00;102162.44;5034950;28;20684;-44
2022/05/28 05:15:44;;;;;;;14.55;1.80;;;;;;;11.07;100.00;102159.50;5034705;28;20172;-44
2022/05/28 05:18:09;;;;;;;21.17;1.88;;;;;;;11.10;100.00;102153.88;5036350;28;20031;-44
2022/05/28 05:20:34;;;;;;;17.75;2.10;;;;;;;11.14;100.00;102155.31;5035677;28;20175;-43
2022/05/28 05:23:00;;;;;;;15.75;1.58;;;;;;;11.19;100.00;102164.63;5034834;28;20114;-43
2022/05/28 05:25:26;;;;;;;9.77;1.50;;;;;;;11.24;100.00;102155.38;5015522;28;20041;-43
2022/05/28 05:27:52;;;;;;;9.82;2.00;;;;;;;11.25;100.00;102162.41;5014710;28;20040;-44
2022/05/28 05:30:17;;;;;;;9.32;1.75;;;;;;;11.28;100.00;102162.97;5013606;28;20025;-47
2022/05/28 05:32:42;;;;;;;10.30;1.40;;;;;;;11.33;100.00;102167.94;5018075;28;20384;-45
2022/05/28 05:35:09;;;;;;;10.88;1.50;;;;;;;11.38;100.00;102169.22;5032416;28;20360;-45
2022/05/28 05:37:34;;;;;;;15.25;1.95;;;;;;;11.41;100.00;102167.28;5033836;28;20060;-44
2022/05/28 05:40:00;;;;;;;12.63;1.55;;;;;;;11.43;100.00;102163.47;5034152;28;20114;-47
2022/05/28 05:42:25;;;;;;;16.38;2.08;;;;;;;11.49;100.00;102173.66;5033723;28;20369;-44
2022/05/28 05:44:51;;;;;;;11.35;1.48;;;;;;;11.54;100.00;102166.06;5032959;28;20025;-45
2022/05/28 05:47:16;;;;;;;13.27;1.50;;;;;;;11.57;100.00;102171.16;5034406;28;20033;-47
2022/05/28 05:49:41;;;;;;;10.48;1.45;;;;;;;11.56;100.00;102169.44;5035995;28;20085;-44
2022/05/28 05:52:07;;;;;;;11.50;1.48;;;;;;;11.59;100.00;102173.66;5034120;28;20396;-44
2022/05/28 05:54:32;;;;;;;9.80;1.50;;;;;;;11.63;100.00;102179.63;5034068;28;20029;-44
2022/05/28 05:56:58;;;;;;;11.32;1.38;;;;;;;11.67;100.00;102173.84;5023308;28;20037;-43
2022/05/28 05:59:23;;;;;;;11.65;1.70;;;;;;;11.72;100.00;102181.47;5026704;28;20236;-46
2022/05/28 06:01:49;;;;;;;9.10;1.35;;;;;;;11.81;100.00;102179.81;5024525;28;20377;-48
2022/05/28 06:04:14;;;;;;;9.70;1.80;;;;;;;11.86;100.00;102178.44;5020467;28;20433;-44
2022/05/28 06:06:40;;;;;;;12.65;1.52;;;;;;;11.93;100.00;102179.59;5026513;28;20025;-47
2022/05/28 06:09:06;;;;;;;9.02;1.15;;;;;;;11.90;99.01;102181.69;5020886;28;20032;-45
2022/05/28 06:11:32;;;;;;;7.93;1.30;;;;;;;11.97;98.20;102177.50;5034130;28;20467;-46
2022/05/28 06:13:57;;;;;;;4.70;1.00;;;;;;;11.96;96.76;102181.16;5035475;28;20161;-45
2022/05/28 06:16:22;;;;;;;7.82;1.25;;;;;;;11.94;97.23;102173.25;5027292;28;20067;-45
2022/05/28 06:18:48;;;;;;;14.70;1.45;;;;;;;12.01;94.71;102186.94;5031698;28;20021;-44
2022/05/28 06:21:13;;;;;;;10.93;1.45;;;;;;;12.08;94.63;102187.22;5034866;28;20292;-46
2022/05/28 06:23:41;;;;;;;7.50;1.15;;;;;;;12.17;93.95;102191.78;5034086;28;20622;-45
2022/05/28 06:26:06;;;;;;;13.90;1.48;;;;;;;12.26;93.37;102190.09;5030854;28;20292;-45
2022/05/28 06:28:32;;;;;;;10.00;1.00;;;;;;;12.28;93.54;102188.13;5014504;28;20060;-46
2022/05/28 06:31:01;;;;;;;7.75;1.45;;;;;;;12.51;95.65;102194.06;5013925;28;20025;-45
2022/05/28 06:33:27;;;;;;;9.60;1.60;;;;;;;12.65;91.54;102201.66;5016497;28;20032;-44
2022/05/28 06:35:57;;;;;;;14.23;1.52;;;;;;;12.64;87.07;102202.66;5015604;28;20087;-43
2022/05/28 06:38:22;;;;;;;7.25;1.38;;;;;;;12.62;88.46;102195.75;5015808;28;20460;-45
2022/05/28 06:40:47;;;;;;;12.20;1.60;;;;;;;12.63;88.64;102198.28;5022051;28;20190;-46
2022/05/28 06:43:13;;;;;;;10.07;1.25;;;;;;;12.67;89.17;102205.03;5032652;28;20033;-43
2022/05/28 06:45:38;;;;;;;8.70;1.15;;;;;;;12.67;87.25;102207.72;5020128;28;20033;-45
2022/05/28 06:48:03;;;;;;;8.07;1.15;;;;;;;12.73;88.57;102203.66;5015403;28;20036;-46
2022/05/28 06:53:13;;;;;;;8.68;1.25;;;;;;;12.99;88.31;102203.91;5022495;28;20534;-43
2022/05/28 06:55:38;;;;;;;10.30;1.40;;;;;;;13.35;88.53;102206.81;5021811;28;20029;-46
2022/05/28 06:58:06;;;;;;;15.40;1.08;;;;;;;13.65;85.22;102206.72;5033553;28;20375;-44
2022/05/28 07:00:31;;;;;;;9.32;1.48;;;;;;;13.89;84.86;102204.31;5032923;28;20047;-45
2022/05/28 07:02:57;;;;;;;9.75;1.30;;;;;;;14.09;83.10;102202.38;5035228;28;20175;-46
2022/05/28 07:05:22;;;;;;;15.68;1.50;;;;;;;13.97;81.80;102203.59;5028207;28;20671;-44
2022/05/28 07:07:48;;;;;;;13.30;1.80;;;;;;;13.87;82.52;102203.63;5018973;28;20496;-48
2022/05/28 07:10:13;;;;;;;12.40;2.03;;;;;;;13.86;81.44;102211.84;5018541;28;20040;-46
2022/05/28 07:12:38;;;;;;;10.52;1.33;;;;;;;13.80;81.71;102208.75;5016277;28;20472;-44
2022/05/28 07:15:05;;;;;;;8.85;1.35;;;;;;;13.94;82.47;102215.47;5015526;28;20029;-44
2022/05/28 07:17:30;;;;;;;4.25;1.05;;;;;;;14.15;79.51;102207.16;5017394;28;20021;-43
2022/05/28 07:19:55;;;;;;;6.38;1.20;;;;;;;14.19;78.22;102207.69;5018750;28;20025;-44
2022/05/28 07:22:21;;;;;;;8.68;1.40;;;;;;;14.34;78.25;102208.00;5017323;28;20306;-47
2022/05/28 07:24:46;;;;;;;9.35;1.23;;;;;;;14.40;75.48;102212.78;5018478;28;20525;-50
2022/05/28 07:27:12;;;;;;;5.05;1.02;;;;;;;14.31;72.21;102205.63;5018156;28;20187;-44
2022/05/28 07:29:39;;;;;;;8.77;1.38;;;;;;;14.29;74.04;102213.84;5015464;28;20132;-44
2022/05/28 07:32:05;;;;;;;7.15;1.20;;;;;;;14.20;72.47;102208.53;5017857;28;20021;-48
2022/05/28 07:34:30;;;;;;;8.27;1.58;;;;;;;13.76;71.37;102215.44;5016192;28;20440;-46
2022/05/28 07:36:55;;;;;;;9.43;1.15;;;;;;;13.64;74.32;102211.22;5017953;28;20365;-45
2022/05/28 07:39:20;;;;;;;8.18;1.10;;;;;;;13.76;74.98;102212.75;5025864;28;20021;-48
2022/05/28 07:41:46;;;;;;;9.25;1.67;;;;;;;13.83;75.43;102217.50;5034344;28;20547;-45
2022/05/28 07:44:11;;;;;;;9.90;1.25;;;;;;;14.01;75.00;102213.03;5036447;28;20524;-45
2022/05/28 07:46:37;;;;;;;7.95;1.23;;;;;;;14.26;73.81;102203.41;5035374;28;20035;-44
2022/05/28 07:49:03;;;;;;;8.45;1.38;;;;;;;14.17;72.25;102215.91;5036886;28;20013;-43
2022/05/28 07:51:29;;;;;;;7.38;1.27;;;;;;;14.04;71.62;102212.72;5030589;28;20420;-44
2022/05/28 07:53:55;;;;;;;10.20;1.42;;;;;;;14.00;72.43;102208.63;5034927;28;20051;-48
2022/05/28 07:56:23;;;;;;;9.98;1.48;;;;;;;14.03;71.65;102211.03;5031867;28;20239;-46
2022/05/28 07:58:54;;;;;;;9.77;1.38;;;;;;;14.12;72.42;102211.97;5031117;28;20052;-46
2022/05/28 08:01:22;;;;;;;8.40;1.10;;;;;;;14.53;71.19;102212.41;5034680;28;20017;-43
2022/05/28 08:03:48;;;;;;;9.55;1.73;;;;;;;14.99;71.70;102206.94;5036439;28;20044;-44
2022/05/28 08:06:13;;;;;;;7.90;1.33;;;;;;;15.11;70.00;102209.19;5030361;28;20104;-43
2022/05/28 08:08:39;;;;;;;10.35;1.83;;;;;;;15.23;70.25;102209.78;5021115;28;20037;-47
2022/05/28 08:11:04;;;;;;;8.65;1.55;;;;;;;15.42;69.23;102219.47;5033960;28;20586;-45
2022/05/28 08:13:29;;;;;;;7.95;1.38;;;;;;;14.84;66.72;102212.88;5032415;28;20025;-46
2022/05/28 08:15:55;;;;;;;5.65;1.40;;;;;;;14.52;70.14;102210.69;5033236;28;20029;-44
2022/05/28 08:18:24;;;;;;;10.75;1.50;;;;;;;14.35;71.37;102207.00;5031525;28;20423;-44
2022/05/28 08:23:34;;;;;;;7.28;1.55;;;;;;;14.04;71.33;102204.66;5036250;28;20055;-42
2022/05/28 08:25:59;;;;;;;12.40;1.60;;;;;;;14.27;74.69;102209.59;5036891;28;20670;-43
2022/05/28 08:28:24;;;;;;;8.38;1.75;;;;;;;14.60;72.83;102212.66;5035788;28;20087;-47
2022/05/28 08:30:50;;;;;;;4.30;1.08;;;;;;;14.87;69.67;102201.81;5034922;28;20479;-46
2022/05/28 08:33:17;;;;;;;7.85;1.27;;;;;;;15.10;66.00;102204.84;5037239;28;20056;-47
2022/05/28 08:35:43;;;;;;;7.38;1.25;;;;;;;15.28;67.78;102194.00;5037353;28;20495;-47
2022/05/28 08:38:15;;;;;;;10.00;1.38;;;;;;;15.65;66.29;102195.53;5035427;28;20307;-46
2022/05/28 08:40:42;;;;;;;;;;;;;;;15.80;65.80;102200.34;5036942;28;20025;-43
2022/05/28 08:43:09;;;;;;;11.68;1.45;;;;;;;16.09;64.26;102207.16;5033404;28;19905;-44
2022/05/28 08:45:35;;;;;;;5.63;1.00;;;;;;;16.34;57.40;102200.00;5034583;28;20394;-45
2022/05/28 08:48:01;;;;;;;12.30;1.33;;;;;;;16.76;58.72;102205.25;5034279;28;20174;-45
2022/05/28 08:50:28;;;;;;;9.50;1.35;;;;;;;16.87;56.91;102205.94;5035642;28;20032;-45
2022/05/28 08:53:10;;;;;;;9.88;1.30;;;;;;;16.69;56.14;102212.34;5035291;28;20041;-47
2022/05/28 08:55:42;;;;;;;9.80;1.40;;;;;;;16.36;55.15;102204.22;5014505;28;20248;-43
2022/05/28 08:58:12;;;;;;;11.38;1.70;;;;;;;16.13;57.50;102209.38;5015821;28;20614;-44
2022/05/28 09:00:48;;;;;;;8.48;1.70;;;;;;;16.02;61.08;102206.97;5012601;28;20060;-45
2022/05/28 09:03:18;;;;;;;7.57;1.50;;;;;;;16.04;58.34;102192.34;5016809;28;20056;-45
2022/05/28 09:05:50;;;;;;;11.35;1.80;;;;;;;15.89;60.89;102203.94;5016349;28;20331;-44
2022/05/28 09:08:27;;;;;;;12.02;1.30;;;;;;;15.89;60.45;102199.38;5013916;28;20412;-44
2022/05/28 09:10:56;;;;;;;10.52;1.40;;;;;;;15.94;55.36;102201.59;5016711;28;20036;-47
2022/05/28 09:13:43;;;;;;;13.68;1.48;;;;;;;15.46;53.81;102199.34;5029385;28;20056;-44
2022/05/28 09:16:24;;;;;;;13.93;1.42;;;;;;;15.35;58.07;102193.38;5033368;28;20040;-46
2022/05/28 09:18:52;;;;;;;10.38;1.45;;;;;;;15.78;58.78;102197.84;5035083;28;20055;-43
2022/05/28 09:21:17;;;;;;;11.00;1.30;;;;;;;16.24;60.34;102210.91;5035532;28;20055;-43
2022/05/28 09:23:47;;;;;;;7.32;1.15;;;;;;;16.49;54.11;102209.09;5036695;28;20455;-43
2022/05/28 09:26:16;;;;;;;8.10;1.17;;;;;;;16.93;56.29;102197.19;5036065;28;20102;-42
2022/05/28 09:29:06;;;;;;;7.07;1.35;;;;;;;17.35;59.00;102198.81;5034995;28;20017;-44
2022/05/28 09:31:45;;;;;;;4.25;1.23;;;;;;;17.19;55.90;102204.22;5023192;28;20051;-42
2022/05/28 09:34:37;;;;;;;8.88;1.23;;;;;;;16.71;56.31;102204.91;5016125;28;20472;-46
2022/05/28 09:37:27;;;;;;;8.93;1.38;;;;;;;16.63;57.49;102202.19;5015310;28;20037;-46
2022/05/28 09:40:04;;;;;;;12.98;1.80;;;;;;;16.79;60.18;102210.31;5016139;28;20508;-44
2022/05/28 09:42:55;;;;;;;6.97;1.40;;;;;;;16.73;56.07;102205.59;5014950;28;20526;-47
2022/05/28 09:45:45;;;;;;;7.50;1.52;;;;;;;16.67;56.69;102208.13;5022792;28;20040;-43
2022/05/28 09:48:19;;;;;;;12.48;1.67;;;;;;;17.13;60.14;102195.81;5034291;28;20064;-45
2022/05/28 09:50:44;;;;;;;7.57;1.38;;;;;;;17.29;52.61;102205.75;5035418;28;20021;-45
2022/05/28 09:56:15;;;;;;;8.32;1.58;;;;;;;17.52;49.20;102197.72;5035373;28;20568;-46
2022/05/28 09:58:42;;;;;;;9.10;1.45;;;;;;;17.30;49.66;102187.69;5021369;28;20057;-43
2022/05/28 10:01:26;;;;;;;9.02;1.50;;;;;;;16.94;52.10;102190.78;5032823;28;20506;-44
2022/05/28 10:06:51;;;;;;;5.07;1.23;;;;;;;15.61;55.15;102196.88;5015858;28;20033;-45
2022/05/28 10:09:22;;;;;;;5.68;1.23;;;;;;;15.82;58.14;102192.97;5018129;28;20460;-44
2022/05/28 10:11:53;;;;;;;6.35;1.30;;;;;;;16.35;52.78;102183.66;5034694;28;20028;-46
2022/05/28 10:14:19;;;;;;;5.13;1.25;;;;;;;16.86;54.10;102182.69;5031898;28;20063;-46
2022/05/28 10:16:48;;;;;;;10.05;1.70;;;;;;;17.06;47.96;102184.00;5033057;28;20033;-45
2022/05/28 10:19:24;;;;;;;7.65;1.50;;;;;;;17.49;50.22;102186.44;5034532;28;20123;-43
2022/05/28 10:21:52;;;;;;;8.27;1.70;;;;;;;17.40;48.78;102182.94;5033426;28;20406;-47
2022/05/28 10:24:22;;;;;;;5.85;1.30;;;;;;;16.90;50.83;102187.56;5034484;28;20099;-45
2022/05/28 10:26:52;;;;;;;8.10;1.60;;;;;;;16.59;50.23;102180.13;5033580;28;20438;-45
2022/05/28 10:29:42;;;;;;;8.05;1.38;;;;;;;16.64;53.98;102184.19;5033143;28;20195;-45
2022/05/28 10:32:44;;;;;;;7.05;1.15;;;;;;;17.17;51.85;102184.66;5033770;28;20052;-46
2022/05/28 10:35:15;;;;;;;10.13;1.42;;;;;;;17.20;47.16;102185.16;5033602;28;20170;-47
2022/05/28 10:37:41;;;;;;;9.68;1.52;;;;;;;17.52;48.03;102184.22;5034602;28;20165;-45
2022/05/28 10:40:17;;;;;;;11.35;1.98;;;;;;;17.86;46.38;102179.53;5036904;28;20171;-46
2022/05/28 10:42:43;;;;;;;7.70;1.60;;;;;;;18.09;50.04;102176.88;5034209;28;20116;-44
2022/05/28 10:45:09;;;;;;;10.85;1.85;;;;;;;18.14;47.87;102173.66;5036564;28;20088;-45
2022/05/28 10:47:52;;;;;;;9.27;1.30;;;;;;;17.60;50.41;102179.81;5034916;28;20071;-47
2022/05/28 10:50:44;;;;;;;13.23;1.80;;;;;;;16.82;51.29;102181.28;5035200;28;20036;-46
2022/05/28 10:53:20;;;;;;;7.28;1.77;;;;;;;16.25;50.84;102190.22;5030373;28;20078;-44
2022/05/28 10:56:06;;;;;;;10.70;1.50;;;;;;;16.44;54.38;102180.97;5037931;28;20516;-45
2022/05/28 10:58:53;;;;;;;14.15;1.70;;;;;;;16.83;51.33;102180.28;5032422;28;20040;-44
2022/05/28 11:01:35;;;;;;;8.43;1.73;;;;;;;17.09;47.73;102186.38;5034782;28;20559;-47
2022/05/28 11:04:33;;;;;;;9.57;1.60;;;;;;;17.21;48.11;102176.06;5037513;28;20025;-49
2022/05/28 11:07:17;;;;;;;9.35;1.40;;;;;;;17.38;49.82;102176.00;5022892;28;20049;-43
2022/05/28 11:10:07;;;;;;;12.68;1.90;;;;;;;18.14;48.24;102170.94;5037340;28;20287;-43
2022/05/28 11:12:36;;;;;;;10.87;1.57;;;;;;;18.44;47.62;102169.22;5038142;28;20048;-45
2022/05/28 11:15:30;;;;;;;10.40;1.38;;;;;;;17.98;44.73;102169.19;5036788;28;20061;-48
2022/05/28 11:18:17;;;;;;;9.60;1.52;;;;;;;17.66;45.68;102168.31;5036618;28;20095;-49
2022/05/28 11:21:09;;;;;;;9.30;1.70;;;;;;;17.75;45.72;102169.09;5038673;28;20076;-50
2022/05/28 11:24:09;;;;;;;9.23;1.33;;;;;;;18.00;44.51;102175.25;5036661;28;20449;-47
2022/05/28 11:26:46;;;;;;;8.25;1.50;;;;;;;18.00;45.03;102167.97;5034956;28;20269;-48
2022/05/28 11:29:14;;;;;;;13.35;1.40;;;;;;;18.56;45.31;102165.06;5057700;28;20440;-46
2022/05/28 11:31:54;;;;;;;5.68;1.20;;;;;;;18.60;40.90;102169.09;5036367;28;20528;-44
2022/05/28 11:34:40;;;;;;;7.17;1.47;;;;;;;18.12;43.76;102167.59;5037685;28;20112;-44
2022/05/28 11:37:15;;;;;;;6.72;1.35;;;;;;;18.02;44.34;102159.69;5037142;28;20143;-47